Time;durP1;ratioP1;P1;durP2;ratioP2;P2;SDS_P1;SDS_P2;PMS_P1;PMS_P2;Temp;Humidity;BMP_temperature;BMP_pressure;BME280_temperature;BME280_humidity;BME280_pressure;Samples;Min_cycle;Max_cycle;Signal;HPM_P1;HPM_P2
2020/12/18 00:01:36;;;;;;;58.13;24.00;;;;;;;4.34;80.33;101506.14;1726959;80;25798;-62
2020/12/18 00:04:06;;;;;;;53.95;23.65;;;;;;;4.34;80.34;101503.48;1746469;80;25822;-62
2020/12/18 00:06:36;;;;;;;55.17;23.55;;;;;;;4.34;80.39;101499.50;1733634;80;26447;-62
2020/12/18 00:09:06;;;;;;;53.73;24.15;;;;;;;4.35;80.39;101496.41;1725214;81;27371;-62
2020/12/18 00:11:34;;;;;;;57.48;24.60;;;;;;;4.35;80.42;101497.73;1736908;80;25855;-62
2020/12/18 00:14:02;;;;;;;50.80;22.60;;;;;;;4.35;80.43;101501.71;1729830;80;26509;-62
2020/12/18 00:16:32;;;;;;;54.35;23.30;;;;;;;4.21;80.38;101481.42;1735027;80;25847;-63
2020/12/18 00:19:00;;;;;;;48.73;22.52;;;;;;;4.32;80.46;101513.23;1738101;80;25856;-61
2020/12/18 00:21:28;;;;;;;50.85;22.27;;;;;;;4.32;80.51;101503.05;1734123;80;27606;-61
2020/12/18 00:23:56;;;;;;;51.83;23.25;;;;;;;4.33;80.52;101503.05;1718818;80;26127;-61
2020/12/18 00:26:25;;;;;;;49.75;22.80;;;;;;;4.33;80.58;101502.16;1724828;80;26026;-61
2020/12/18 00:28:53;;;;;;;52.62;22.80;;;;;;;4.33;80.62;101503.05;1748374;80;25929;-62
2020/12/18 00:34:00;;;;;;;47.00;21.48;;;;;;;4.36;80.67;101500.83;1717189;81;27610;-64
2020/12/18 00:36:29;;;;;;;48.50;22.48;;;;;;;4.36;80.64;101503.03;1740303;80;26020;-64
2020/12/18 00:38:57;;;;;;;46.30;22.00;;;;;;;4.37;80.65;101506.57;1718945;81;25820;-61
2020/12/18 00:41:25;;;;;;;43.15;19.17;;;;;;;4.37;80.71;101508.78;1721517;80;25772;-61
2020/12/18 00:43:53;;;;;;;45.67;21.85;;;;;;;4.39;80.74;101507.45;1730756;80;25817;-61
2020/12/18 00:46:20;;;;;;;49.90;21.95;;;;;;;4.38;80.79;101509.22;1728368;80;27908;-61
2020/12/18 00:48:48;;;;;;;50.28;20.50;;;;;;;4.40;80.83;101509.21;1743401;80;25918;-61
2020/12/18 00:51:18;;;;;;;45.52;21.02;;;;;;;4.42;80.92;101512.30;1728303;80;26229;-63
2020/12/18 00:53:46;;;;;;;47.08;21.23;;;;;;;4.43;80.92;101514.06;1723779;81;26865;-63
2020/12/18 00:56:14;;;;;;;48.25;21.17;;;;;;;4.46;80.91;101519.80;1715619;80;25852;-63
2020/12/18 00:58:44;;;;;;;52.73;22.98;;;;;;;4.47;80.95;101516.26;1730811;81;28543;-63
2020/12/18 01:01:12;;;;;;;49.33;22.55;;;;;;;4.48;80.97;101521.56;1702862;81;26129;-61
2020/12/18 01:03:40;;;;;;;40.25;19.92;;;;;;;4.49;81.00;101519.79;1726963;80;25826;-63
2020/12/18 01:06:11;;;;;;;47.45;21.17;;;;;;;4.52;81.07;101517.12;1730024;80;25912;-63
2020/12/18 01:08:40;;;;;;;50.40;22.05;;;;;;;4.52;81.04;101524.64;1727766;80;25741;-63
2020/12/18 01:11:08;;;;;;;50.28;22.22;;;;;;;4.53;81.12;101526.41;1720792;80;27444;-62
2020/12/18 01:13:36;;;;;;;42.50;19.42;;;;;;;4.53;81.13;101522.42;1717606;80;26183;-63
2020/12/18 01:16:15;;;;;;;50.35;21.25;;;;;;;4.55;81.17;101526.40;1733675;81;26697;-63
2020/12/18 01:18:45;;;;;;;48.68;20.85;;;;;;;4.57;81.17;101533.91;1744077;80;25848;-63
2020/12/18 01:21:12;;;;;;;47.98;21.93;;;;;;;4.55;81.20;101533.92;1721871;81;25811;-63
2020/12/18 01:23:40;;;;;;;50.45;22.07;;;;;;;4.56;81.23;101541.00;1721241;80;26464;-63
2020/12/18 01:26:09;;;;;;;57.62;22.27;;;;;;;4.56;81.31;101539.67;1730782;81;43251;-63
2020/12/18 01:28:37;;;;;;;48.65;21.48;;;;;;;4.59;81.30;101545.41;1716648;80;26811;-63
2020/12/18 01:31:06;;;;;;;39.35;19.57;;;;;;;4.58;81.32;101544.97;1722707;81;26396;-63
2020/12/18 01:33:34;;;;;;;52.40;20.77;;;;;;;4.59;81.35;101545.41;1710055;80;25869;-61
2020/12/18 01:36:02;;;;;;;47.05;21.15;;;;;;;4.60;81.39;101550.27;1706903;82;27942;-61
2020/12/18 01:38:30;;;;;;;44.50;20.52;;;;;;;4.60;81.35;101545.84;1712435;82;25815;-61
2020/12/18 01:41:00;;;;;;;43.17;20.60;;;;;;;4.62;81.62;101549.38;1710651;83;26006;-61
2020/12/18 01:43:27;;;;;;;45.12;21.00;;;;;;;4.65;81.48;101552.47;1710513;83;25745;-61
2020/12/18 01:45:59;;;;;;;52.27;22.77;;;;;;;4.65;81.56;101545.37;1710683;83;25750;-61
2020/12/18 01:48:28;;;;;;;44.15;20.55;;;;;;;4.66;81.58;101549.80;1710759;83;27843;-61
2020/12/18 01:50:56;;;;;;;55.83;20.57;;;;;;;4.68;81.58;101544.04;1687222;83;25796;-61
2020/12/18 01:53:28;;;;;;;48.30;21.93;;;;;;;4.69;81.60;101547.12;1710310;83;25797;-61
2020/12/18 01:55:55;;;;;;;;;;;;;;;4.71;81.62;101545.35;1711600;82;26298;-61
2020/12/18 01:58:24;;;;;;;43.15;19.40;;;;;;;4.71;81.66;101540.04;1720351;80;25913;-61
2020/12/18 02:00:54;;;;;;;50.05;21.55;;;;;;;4.72;81.67;101537.82;1729323;82;27529;-61
2020/12/18 02:03:21;;;;;;;43.13;19.67;;;;;;;4.73;81.61;101543.57;1712029;80;25997;-61
2020/12/18 02:05:49;;;;;;;46.80;19.65;;;;;;;4.72;81.69;101554.20;1712446;82;25812;-61
2020/12/18 02:08:23;;;;;;;42.85;20.00;;;;;;;4.71;81.75;101546.68;1720642;80;25961;-61
2020/12/18 02:10:54;;;;;;;37.98;18.82;;;;;;;4.70;81.77;101553.33;1722250;82;26107;-61
2020/12/18 02:13:24;;;;;;;44.87;20.20;;;;;;;4.68;81.80;101552.00;1717072;80;27795;-64
2020/12/18 02:15:55;;;;;;;42.73;18.77;;;;;;;4.67;81.82;101556.00;1698857;81;26506;-61
2020/12/18 02:18:26;;;;;;;45.30;19.95;;;;;;;4.66;81.85;101556.44;1716896;80;26530;-61
2020/12/18 02:20:54;;;;;;;43.75;19.62;;;;;;;4.62;81.87;101558.67;1716330;82;26085;-61
2020/12/18 02:23:24;;;;;;;48.68;21.62;;;;;;;4.63;81.95;101555.13;1695079;80;25989;-61
2020/12/18 02:26:11;;;;;;;46.42;20.55;;;;;;;4.64;82.01;101558.22;1718014;82;26165;-61
2020/12/18 02:28:40;;;;;;;41.77;17.70;;;;;;;4.66;82.01;101559.09;1720810;80;26783;-61
2020/12/18 02:31:09;;;;;;;43.25;18.87;;;;;;;4.66;82.02;101561.75;1723589;80;26015;-62
2020/12/18 02:33:42;;;;;;;44.48;19.27;;;;;;;4.66;82.07;101561.75;1719270;80;26139;-61
2020/12/18 02:36:12;;;;;;;45.00;20.43;;;;;;;4.67;82.13;101566.61;1734270;81;25864;-61
2020/12/18 02:38:42;;;;;;;36.63;17.55;;;;;;;4.68;82.10;101569.71;1738911;80;27655;-61
2020/12/18 02:41:09;;;;;;;41.90;19.20;;;;;;;4.70;82.16;101567.93;1712580;81;25829;-61
2020/12/18 02:43:37;;;;;;;40.58;19.07;;;;;;;4.70;82.17;101570.59;1726567;80;25913;-61
2020/12/18 02:46:05;;;;;;;41.88;18.75;;;;;;;4.71;82.20;101568.37;1718396;80;26603;-61
2020/12/18 02:48:34;;;;;;;41.02;19.27;;;;;;;4.72;82.24;101575.00;1739728;80;26300;-62
2020/12/18 02:51:04;;;;;;;42.40;19.02;;;;;;;4.73;82.26;101574.11;1723476;81;27771;-62
2020/12/18 02:53:32;;;;;;;48.35;20.10;;;;;;;4.74;82.27;101569.69;1724853;80;26165;-61
2020/12/18 02:56:00;;;;;;;39.20;19.17;;;;;;;4.75;82.26;101575.43;1726511;80;25781;-62
2020/12/18 02:58:28;;;;;;;39.60;18.90;;;;;;;4.72;82.29;101576.77;1723963;80;25960;-61
2020/12/18 03:00:55;;;;;;;40.95;19.35;;;;;;;4.71;82.29;101573.23;1731206;80;26011;-61
2020/12/18 03:03:23;;;;;;;37.55;17.98;;;;;;;4.70;82.41;101574.57;1741331;80;27738;-61
2020/12/18 03:05:51;;;;;;;35.88;18.17;;;;;;;4.68;82.36;101584.31;1738399;80;26193;-64
2020/12/18 03:08:21;;;;;;;40.28;19.62;;;;;;;4.64;82.35;101578.58;1734938;80;25934;-61
2020/12/18 03:10:50;;;;;;;41.40;19.02;;;;;;;4.60;82.41;101579.48;1740445;80;26417;-62
2020/12/18 03:13:19;;;;;;;40.63;17.87;;;;;;;4.54;82.44;101574.63;1738341;80;25980;-62
2020/12/18 03:15:48;;;;;;;34.78;17.40;;;;;;;4.52;82.46;101578.18;1729029;81;27713;-62
2020/12/18 03:18:16;;;;;;;37.00;17.25;;;;;;;4.49;82.47;101572.44;1732373;80;25866;-62
2020/12/18 03:20:44;;;;;;;36.10;16.67;;;;;;;4.48;82.54;101569.34;1722534;81;26370;-61
2020/12/18 03:23:16;;;;;;;40.43;18.45;;;;;;;4.47;82.54;101567.58;1743141;81;26035;-62
2020/12/18 03:25:44;;;;;;;36.85;17.07;;;;;;;4.45;82.56;101572.02;1726548;80;25806;-61
2020/12/18 03:28:11;;;;;;;43.98;18.95;;;;;;;4.46;82.60;101578.20;1719201;81;27877;-62
2020/12/18 03:30:41;;;;;;;37.53;17.70;;;;;;;4.46;82.61;101573.78;1727820;80;26423;-61
2020/12/18 03:33:10;;;;;;;39.23;18.65;;;;;;;4.49;82.66;101570.23;1730864;80;26013;-62
2020/12/18 03:35:38;;;;;;;41.00;18.65;;;;;;;4.49;82.65;101571.11;1719025;80;25899;-62
2020/12/18 03:38:09;;;;;;;37.25;17.87;;;;;;;4.50;82.65;101569.34;1722547;81;26065;-62
2020/12/18 03:40:37;;;;;;;40.58;17.60;;;;;;;4.52;82.70;101575.53;1729258;80;28696;-61
2020/12/18 03:43:06;;;;;;;39.27;18.45;;;;;;;4.51;82.67;101578.63;1729457;81;25779;-61
2020/12/18 03:45:34;;;;;;;36.85;16.27;;;;;;;4.53;82.72;101573.31;1722181;80;26121;-61
2020/12/18 03:48:03;;;;;;;36.68;17.37;;;;;;;4.54;82.73;101573.75;1721711;80;26702;-62
2020/12/18 03:50:31;;;;;;;42.45;19.82;;;;;;;4.53;82.76;101574.64;1721282;80;25874;-62
2020/12/18 03:53:00;;;;;;;43.08;17.50;;;;;;;4.52;82.75;101584.81;1726946;80;27975;-62
2020/12/18 03:55:29;;;;;;;35.78;16.20;;;;;;;4.51;82.77;101587.03;1719214;80;26479;-61
2020/12/18 03:57:57;;;;;;;31.80;15.83;;;;;;;4.49;82.79;101582.17;1719072;80;25827;-62
2020/12/18 04:00:26;;;;;;;39.95;18.35;;;;;;;4.49;82.81;101585.71;1720308;80;25795;-63
2020/12/18 04:02:53;;;;;;;36.80;18.05;;;;;;;4.50;82.84;101589.25;1732059;81;25938;-62
2020/12/18 04:05:27;;;;;;;38.67;17.37;;;;;;;4.49;82.84;101588.81;1723043;80;27661;-61
2020/12/18 04:07:55;;;;;;;32.10;16.10;;;;;;;4.51;82.86;101590.58;1725282;81;25762;-61
2020/12/18 04:10:24;;;;;;;42.20;17.77;;;;;;;4.53;82.86;101586.59;1719985;80;26187;-61
2020/12/18 04:12:53;;;;;;;36.28;16.57;;;;;;;4.53;82.83;101594.11;1730304;80;25754;-61
2020/12/18 04:15:21;;;;;;;39.40;17.73;;;;;;;4.53;82.81;101585.26;1733479;80;25805;-62
2020/12/18 04:17:49;;;;;;;34.03;16.67;;;;;;;4.52;82.85;101594.99;1722336;81;27565;-61
2020/12/18 04:20:16;;;;;;;40.70;17.98;;;;;;;4.51;82.86;101594.55;1728976;80;25723;-62
2020/12/18 04:22:45;;;;;;;38.15;17.70;;;;;;;4.49;82.93;101593.68;1713023;81;25842;-62
2020/12/18 04:25:14;;;;;;;39.70;18.70;;;;;;;4.49;82.94;101598.10;1728060;80;25826;-62
2020/12/18 04:27:42;;;;;;;42.23;17.62;;;;;;;4.48;82.95;101597.22;1717653;80;25882;-61
2020/12/18 04:30:10;;;;;;;35.05;17.35;;;;;;;4.47;82.92;101591.47;1736714;81;27986;-62
2020/12/18 04:32:40;;;;;;;34.65;17.62;;;;;;;4.48;82.97;101597.22;1703056;80;25824;-65
2020/12/18 04:35:07;;;;;;;38.73;17.80;;;;;;;4.48;82.99;101597.66;1712800;82;26214;-62
2020/12/18 04:37:35;;;;;;;38.58;17.82;;;;;;;4.47;82.97;101597.23;1697606;80;26092;-62
2020/12/18 04:40:05;;;;;;;41.13;16.95;;;;;;;4.47;82.94;101599.87;1700915;82;25856;-62
2020/12/18 04:42:35;;;;;;;44.50;19.50;;;;;;;4.46;82.96;101603.42;1727671;80;27805;-62
2020/12/18 04:45:05;;;;;;;46.45;19.45;;;;;;;4.45;82.97;101602.98;1738907;80;26518;-62
2020/12/18 04:47:40;;;;;;;39.35;18.02;;;;;;;4.44;82.96;101604.75;1717728;80;25845;-62
2020/12/18 04:50:09;;;;;;;39.88;17.98;;;;;;;4.44;82.96;101603.42;1720416;80;25862;-62
2020/12/18 04:52:38;;;;;;;39.67;17.37;;;;;;;4.44;82.97;101611.39;1692758;80;25850;-62
2020/12/18 04:55:11;;;;;;;40.63;17.87;;;;;;;4.43;82.97;101612.72;1716871;82;27300;-62
2020/12/18 04:57:42;;;;;;;37.05;18.45;;;;;;;4.40;82.95;101616.27;1714071;82;26295;-62
2020/12/18 05:00:09;;;;;;;39.45;17.12;;;;;;;4.40;83.00;101614.06;1716011;82;25729;-62
2020/12/18 05:02:39;;;;;;;48.17;19.77;;;;;;;4.37;82.98;101613.63;1715569;82;25720;-62
2020/12/18 05:05:10;;;;;;;39.60;18.40;;;;;;;4.38;83.01;101621.14;1715876;82;25777;-63
2020/12/18 05:07:37;;;;;;;37.05;16.90;;;;;;;4.37;82.99;101616.72;1715789;82;28331;-63
2020/12/18 05:10:09;;;;;;;33.85;14.87;;;;;;;4.36;82.97;101613.63;1715706;82;25720;-63
2020/12/18 05:12:38;;;;;;;40.60;18.82;;;;;;;4.35;83.01;101622.03;1715702;82;25802;-63
2020/12/18 05:15:08;;;;;;;41.77;18.95;;;;;;;4.35;83.00;101623.80;1715724;82;25845;-63
2020/12/18 05:17:36;;;;;;;41.70;17.62;;;;;;;4.36;83.01;101621.59;1715827;82;25760;-63
2020/12/18 05:20:06;;;;;;;37.28;17.17;;;;;;;4.36;83.00;101617.61;1715718;82;27459;-63
2020/12/18 05:22:35;;;;;;;38.42;17.30;;;;;;;4.35;82.98;101623.36;1715645;82;25673;-63
2020/12/18 05:25:07;;;;;;;33.85;17.35;;;;;;;4.34;83.00;101625.57;1715775;81;25967;-63
2020/12/18 05:27:41;;;;;;;39.05;16.93;;;;;;;4.34;82.98;101622.92;1715799;82;26325;-61
2020/12/18 05:30:10;;;;;;;39.20;18.65;;;;;;;4.35;83.00;101619.82;1715834;82;25942;-64
2020/12/18 05:32:40;;;;;;;37.35;17.52;;;;;;;4.35;83.00;101622.03;1733056;81;27869;-63
2020/12/18 05:35:08;;;;;;;40.95;17.98;;;;;;;4.36;83.03;101621.59;1735762;81;25629;-63
2020/12/18 05:37:40;;;;;;;37.73;18.20;;;;;;;4.35;83.00;101622.03;1735807;81;25678;-62
2020/12/18 05:40:08;;;;;;;39.75;17.10;;;;;;;4.37;83.01;101623.36;1735750;81;25763;-65
2020/12/18 05:42:47;;;;;;;36.70;17.52;;;;;;;4.36;83.00;101625.12;1735821;81;25776;-64
2020/12/18 05:45:19;;;;;;;61.18;35.73;;;;;;;4.34;82.98;101629.55;1736107;81;27820;-63
2020/12/18 05:47:55;;;;;;;;;;;;;;;4.30;83.00;101627.80;1738507;81;25852;-63
2020/12/18 05:50:36;;;;;;;87.40;55.70;;;;;;;4.33;83.06;101636.19;1735786;81;26033;-63
2020/12/18 05:53:08;;;;;;;91.95;53.00;;;;;;;4.31;83.00;101637.97;1736113;81;26093;-63
2020/12/18 05:55:40;;;;;;;68.52;39.73;;;;;;;4.30;83.00;101649.47;1733821;80;25807;-63
2020/12/18 05:58:13;;;;;;;83.80;46.88;;;;;;;4.30;83.01;101646.81;1739574;80;27439;-63
2020/12/18 06:00:43;;;;;;;65.12;37.13;;;;;;;4.29;83.02;101650.35;1739253;80;26455;-63
2020/12/18 06:03:12;;;;;;;;;;;;;;;4.29;83.02;101649.03;1752209;80;25859;-64
2020/12/18 06:05:43;;;;;;;50.15;24.30;;;;;;;4.29;83.03;101656.98;1726873;80;25907;-63
2020/12/18 06:08:19;;;;;;;47.73;25.02;;;;;;;4.27;83.04;101654.78;1728384;81;25792;-62
2020/12/18 06:10:48;;;;;;;63.63;34.40;;;;;;;4.27;83.01;101656.11;1729565;81;27645;-61
2020/12/18 06:13:17;;;;;;;93.42;52.73;;;;;;;4.24;83.01;101652.57;1734493;80;25842;-62
2020/12/18 06:15:49;;;;;;;81.75;48.60;;;;;;;4.19;82.99;101650.36;1723181;81;25841;-61
2020/12/18 06:18:21;;;;;;;54.58;32.20;;;;;;;4.26;83.00;101660.97;1724861;80;25862;-61
2020/12/18 06:20:54;;;;;;;60.58;29.65;;;;;;;4.26;83.00;101668.94;1708591;81;25418;-64
2020/12/18 06:23:24;;;;;;;63.28;32.38;;;;;;;4.26;83.01;101673.80;1722731;80;27926;-62
2020/12/18 06:25:54;;;;;;;59.98;29.42;;;;;;;4.27;83.01;101674.23;1731892;81;25782;-62
2020/12/18 06:28:24;;;;;;;58.13;28.00;;;;;;;4.26;83.04;101678.22;1730727;80;26432;-62
2020/12/18 06:31:06;;;;;;;51.48;25.43;;;;;;;4.27;83.04;101683.53;1726915;81;26016;-63
2020/12/18 06:33:56;;;;;;;70.03;29.75;;;;;;;4.28;83.03;101681.76;1708064;80;25903;-62
2020/12/18 06:36:47;;;;;;;58.70;25.90;;;;;;;4.30;83.04;101681.31;1709317;80;27504;-62
2020/12/18 06:39:30;;;;;;;50.65;22.73;;;;;;;4.28;83.02;101688.39;1719444;80;25967;-63
2020/12/18 06:42:21;;;;;;;46.28;20.95;;;;;;;4.24;82.99;101692.38;1717811;81;25845;-63
2020/12/18 06:44:59;;;;;;;46.85;21.37;;;;;;;4.26;83.04;101695.03;1721583;81;26515;-64
2020/12/18 06:47:31;;;;;;;46.42;19.80;;;;;;;4.26;83.00;101691.05;1747389;80;26403;-65
2020/12/18 06:50:01;;;;;;;;;;;;;;;4.26;82.98;101697.69;1731780;81;27513;-63
2020/12/18 06:52:57;;;;;;;46.08;19.00;;;;;;;4.27;82.99;101697.23;1740284;80;26485;-63
2020/12/18 06:55:31;;;;;;;45.45;20.55;;;;;;;4.24;82.98;101696.80;1738755;80;25957;-63
2020/12/18 06:58:15;;;;;;;42.45;18.85;;;;;;;4.22;83.05;101702.11;1757226;80;25827;-62
2020/12/18 07:00:57;;;;;;;43.02;19.37;;;;;;;4.21;83.00;101704.32;1728746;80;25795;-62
2020/12/18 07:03:43;;;;;;;43.48;18.73;;;;;;;4.22;83.03;101707.86;1718736;80;27824;-62
2020/12/18 07:06:21;;;;;;;44.70;18.77;;;;;;;4.21;83.04;101709.62;1723035;81;26161;-62
2020/12/18 07:08:50;;;;;;;46.63;20.25;;;;;;;4.22;83.00;101715.81;1740223;80;26575;-62
2020/12/18 07:11:21;;;;;;;41.80;19.30;;;;;;;4.19;83.00;101712.72;1725852;80;26032;-63
2020/12/18 07:13:52;;;;;;;45.48;19.50;;;;;;;4.21;83.04;101708.30;1720191;81;26978;-66
2020/12/18 07:16:26;;;;;;;42.50;19.75;;;;;;;4.22;83.05;101715.81;1691828;81;27593;-62
2020/12/18 07:18:59;;;;;;;47.13;20.72;;;;;;;4.23;83.01;101723.78;1720196;81;25875;-64
2020/12/18 07:21:27;;;;;;;44.73;19.60;;;;;;;4.23;82.97;101731.73;1709293;81;26231;-62
2020/12/18 07:23:56;;;;;;;41.88;19.73;;;;;;;4.24;83.03;101728.20;1738530;80;26339;-62
2020/12/18 07:26:25;;;;;;;51.58;22.15;;;;;;;4.26;83.00;101731.30;1727811;80;25813;-63
2020/12/18 07:28:53;;;;;;;48.08;20.80;;;;;;;4.26;83.01;101736.60;1738230;80;27853;-63
2020/12/18 07:31:23;;;;;;;52.23;22.55;;;;;;;4.27;83.01;101735.28;1758296;79;25923;-64
2020/12/18 07:34:00;;;;;;;53.20;21.12;;;;;;;4.29;83.01;101736.60;1733455;80;26425;-63
2020/12/18 07:36:30;;;;;;;48.08;20.08;;;;;;;4.29;82.98;101739.26;1743839;80;25905;-64
2020/12/18 07:39:01;;;;;;;45.78;20.27;;;;;;;4.27;83.03;101732.63;1727484;81;25869;-63
2020/12/18 07:41:31;;;;;;;48.43;20.30;;;;;;;4.30;83.01;101737.05;1746078;80;26218;-63
2020/12/18 07:44:08;;;;;;;49.95;19.85;;;;;;;4.32;83.00;101736.60;1730333;80;26795;-63
2020/12/18 07:46:38;;;;;;;44.98;20.30;;;;;;;4.34;83.00;101732.18;1725936;80;25884;-63
2020/12/18 07:49:12;;;;;;;44.00;19.02;;;;;;;4.35;83.02;101733.95;1744869;79;25907;-63
2020/12/18 07:51:42;;;;;;;47.83;19.92;;;;;;;4.37;82.99;101738.81;1734536;80;26077;-63
2020/12/18 07:54:20;;;;;;;50.90;23.12;;;;;;;4.40;83.04;101737.05;1729106;81;26134;-64
2020/12/18 07:56:48;;;;;;;50.90;21.90;;;;;;;4.41;82.99;101731.29;1735551;80;25957;-64
2020/12/18 07:59:17;;;;;;;54.05;23.30;;;;;;;4.42;83.03;101726.42;1739512;80;26052;-63
2020/12/18 08:01:47;;;;;;;50.95;22.13;;;;;;;4.44;83.01;101731.29;1744582;79;26040;-63
2020/12/18 08:04:17;;;;;;;48.52;21.50;;;;;;;4.46;83.01;101732.17;1713510;80;25861;-64
2020/12/18 08:06:45;;;;;;;52.25;21.65;;;;;;;4.49;83.01;101731.73;1739897;80;28868;-63
2020/12/18 08:09:19;;;;;;;46.58;21.02;;;;;;;4.52;83.01;101738.36;1735461;81;25878;-63
2020/12/18 08:11:50;;;;;;;50.12;21.68;;;;;;;4.53;82.96;101730.83;1755828;79;25922;-62
2020/12/18 08:14:19;;;;;;;46.55;20.37;;;;;;;4.54;82.97;101740.57;1735404;80;26528;-65
2020/12/18 08:16:50;;;;;;;47.95;19.90;;;;;;;4.56;82.97;101736.58;1727712;81;25896;-63
2020/12/18 08:19:18;;;;;;;44.23;20.57;;;;;;;4.55;82.95;101742.34;1731489;80;32982;-63
2020/12/18 08:21:46;;;;;;;46.28;21.20;;;;;;;4.60;82.99;101746.76;1724596;81;26345;-63
2020/12/18 08:24:31;;;;;;;45.00;20.32;;;;;;;4.59;82.93;101744.55;1733217;80;26035;-63
2020/12/18 08:27:09;;;;;;;46.18;20.17;;;;;;;4.55;82.93;101738.80;1735659;81;27071;-62
2020/12/18 08:29:39;;;;;;;44.40;20.37;;;;;;;4.60;82.92;101750.30;1727567;80;26347;-63
2020/12/18 08:32:08;;;;;;;52.88;21.17;;;;;;;4.61;82.94;101744.10;1742366;80;27420;-63
2020/12/18 08:34:36;;;;;;;52.35;20.60;;;;;;;4.64;82.95;101737.91;1709182;80;25841;-63
2020/12/18 08:37:04;;;;;;;47.83;22.00;;;;;;;4.63;82.91;101744.98;1706106;80;25998;-62
2020/12/18 08:39:37;;;;;;;48.30;20.80;;;;;;;4.68;82.93;101759.58;1714442;80;25804;-63
2020/12/18 08:42:09;;;;;;;48.15;21.25;;;;;;;4.69;82.85;101766.66;1726129;80;26130;-62
2020/12/18 08:44:43;;;;;;;45.30;21.25;;;;;;;4.69;82.87;101761.35;1748663;80;27949;-62
2020/12/18 08:47:27;;;;;;;51.20;21.80;;;;;;;4.72;82.88;101756.03;1736344;80;25906;-63
2020/12/18 08:49:57;;;;;;;49.10;21.80;;;;;;;4.75;82.88;101761.34;1729444;81;26441;-62
2020/12/18 08:52:32;;;;;;;51.23;21.05;;;;;;;4.76;82.83;101767.09;1735361;80;25884;-62
2020/12/18 08:55:06;;;;;;;43.75;20.90;;;;;;;4.75;82.79;101756.91;1709062;82;26508;-62
2020/12/18 08:57:38;;;;;;;50.03;21.30;;;;;;;4.76;82.84;101765.33;1718407;80;27415;-63
2020/12/18 09:00:34;;;;;;;;;;;;;;;;;;;;;
2020/12/18 09:02:56;;;;;;;42.08;19.55;;;;;;;4.78;82.77;101758.23;1713266;80;26089;-65
2020/12/18 09:05:35;;;;;;;44.93;21.80;;;;;;;4.81;82.83;101767.97;1727066;80;26098;-64
2020/12/18 09:08:10;;;;;;;42.05;19.82;;;;;;;4.83;82.79;101767.08;1675875;83;26429;-63
2020/12/18 09:10:43;;;;;;;41.77;20.17;;;;;;;4.85;82.81;101769.73;1683090;82;27813;-62
2020/12/18 09:13:24;;;;;;;42.95;20.48;;;;;;;4.86;82.76;101760.88;1730993;80;25885;-62
2020/12/18 09:16:05;;;;;;;43.45;20.12;;;;;;;4.89;82.73;101771.05;1742371;80;25951;-64
2020/12/18 09:18:41;;;;;;;43.60;19.45;;;;;;;4.86;82.69;101773.72;1719056;80;25917;-62
2020/12/18 09:21:15;;;;;;;51.23;20.60;;;;;;;4.83;82.68;101771.06;1713439;80;25892;-62
2020/12/18 09:23:46;;;;;;;47.30;20.77;;;;;;;4.80;82.65;101768.41;1711269;82;28636;-62
2020/12/18 09:26:28;;;;;;;43.70;18.92;;;;;;;4.80;82.68;101778.16;1708850;82;26011;-62
2020/12/18 09:28:59;;;;;;;54.10;21.33;;;;;;;4.78;82.63;101780.81;1701660;82;26038;-62
2020/12/18 09:31:27;;;;;;;50.85;22.05;;;;;;;4.81;82.66;101770.19;1723483;80;26465;-61
2020/12/18 09:33:55;;;;;;;43.28;19.07;;;;;;;4.84;82.70;101763.54;1701693;80;26115;-63
2020/12/18 09:36:24;;;;;;;41.85;20.20;;;;;;;4.86;82.62;101764.42;1723944;80;27740;-62
2020/12/18 09:38:53;;;;;;;54.83;22.58;;;;;;;4.87;82.58;101756.89;1725667;80;25868;-63
2020/12/18 09:41:25;;;;;;;50.15;21.35;;;;;;;4.91;82.62;101756.44;1710588;80;25918;-63
2020/12/18 09:43:53;;;;;;;47.90;22.25;;;;;;;4.97;82.64;101755.54;1737382;80;26205;-62
2020/12/18 09:46:23;;;;;;;48.35;20.75;;;;;;;5.04;82.57;101766.59;1734285;80;26172;-64
2020/12/18 09:48:51;;;;;;;46.30;21.50;;;;;;;5.10;82.61;101763.92;1713099;82;25926;-65
2020/12/18 09:51:19;;;;;;;47.62;22.80;;;;;;;5.17;82.61;101769.21;1717639;80;26159;-64
2020/12/18 09:53:48;;;;;;;48.75;20.95;;;;;;;5.21;82.47;101772.70;1710605;80;25930;-64
2020/12/18 09:56:17;;;;;;;52.90;21.37;;;;;;;5.22;82.46;101776.69;1707628;80;26455;-63
2020/12/18 09:58:46;;;;;;;46.30;20.97;;;;;;;5.30;82.48;101777.98;1706785;82;25878;-64
2020/12/18 10:01:23;;;;;;;52.03;21.23;;;;;;;5.33;82.45;101772.66;1708348;82;27600;-64
2020/12/18 10:03:51;;;;;;;46.88;22.05;;;;;;;5.39;82.41;101780.61;1719169;80;25858;-64
2020/12/18 10:06:27;;;;;;;52.00;21.12;;;;;;;5.43;82.40;101782.81;1698494;80;25688;-64
2020/12/18 10:08:56;;;;;;;53.13;21.82;;;;;;;5.38;82.30;101762.89;1715614;82;26193;-64
2020/12/18 10:11:33;;;;;;;48.92;20.88;;;;;;;5.48;82.33;101775.27;1710362;80;25863;-64
2020/12/18 10:14:01;;;;;;;40.43;19.98;;;;;;;5.52;82.30;101775.69;1713975;82;27016;-62
2020/12/18 10:16:29;;;;;;;41.28;21.60;;;;;;;5.55;82.14;101767.70;1731156;80;25921;-63
2020/12/18 10:18:59;;;;;;;48.17;22.40;;;;;;;5.52;82.09;101768.16;1732784;81;25858;-63
2020/12/18 10:21:30;;;;;;;49.98;20.15;;;;;;;5.51;82.04;101767.72;1715014;80;26419;-62
2020/12/18 10:24:00;;;;;;;43.78;20.80;;;;;;;5.47;82.02;101766.84;1708051;80;28748;-63
2020/12/18 10:26:28;;;;;;;46.92;19.50;;;;;;;5.47;82.01;101761.53;1709654;80;27565;-63
2020/12/18 10:28:55;;;;;;;44.73;20.82;;;;;;;5.55;82.10;101758.39;1709215;82;25883;-63
2020/12/18 10:31:23;;;;;;;48.58;20.60;;;;;;;5.63;82.08;101761.00;1705603;80;25818;-65
2020/12/18 10:33:51;;;;;;;45.50;21.25;;;;;;;5.73;82.03;101756.52;1726550;80;26016;-64
2020/12/18 10:36:20;;;;;;;47.55;21.25;;;;;;;5.81;82.05;101750.70;1707441;80;25990;-64
2020/12/18 10:38:48;;;;;;;48.17;20.25;;;;;;;5.92;81.96;101754.22;1713405;80;28680;-64
2020/12/18 10:41:15;;;;;;;48.38;21.12;;;;;;;5.93;81.83;101753.33;1712450;80;25878;-63
2020/12/18 10:43:46;;;;;;;47.93;22.45;;;;;;;6.01;81.94;101751.50;1715632;82;26371;-64
2020/12/18 10:46:15;;;;;;;42.25;19.23;;;;;;;6.08;81.89;101756.33;1702093;82;26439;-64
2020/12/18 10:48:43;;;;;;;47.98;21.42;;;;;;;6.07;81.70;101760.77;1709498;82;26628;-64
2020/12/18 10:51:11;;;;;;;45.60;22.30;;;;;;;6.04;81.53;101759.91;1707796;82;27809;-63
2020/12/18 10:53:40;;;;;;;50.43;20.35;;;;;;;6.00;81.52;101764.81;1709289;80;26170;-64
2020/12/18 10:56:08;;;;;;;43.25;20.65;;;;;;;6.00;81.52;101763.03;1720155;80;26564;-63
2020/12/18 10:58:36;;;;;;;43.80;20.92;;;;;;;6.05;81.56;101757.23;1730478;80;26098;-62
2020/12/18 11:01:03;;;;;;;51.63;21.30;;;;;;;6.09;81.47;101756.31;1730905;80;26626;-64
2020/12/18 11:03:31;;;;;;;46.53;21.57;;;;;;;6.10;81.34;101746.11;1738345;80;26793;-63
2020/12/18 11:06:06;;;;;;;43.60;19.92;;;;;;;6.09;81.33;101751.00;1715473;82;25912;-63
2020/12/18 11:08:34;;;;;;;54.33;21.87;;;;;;;6.14;81.32;101751.84;1709236;80;26486;-64
2020/12/18 11:11:02;;;;;;;48.73;21.48;;;;;;;6.16;81.28;101747.84;1696033;82;26158;-63
2020/12/18 11:13:31;;;;;;;50.38;23.38;;;;;;;6.15;81.16;101748.28;1690790;80;25850;-64
2020/12/18 11:16:02;;;;;;;48.98;22.32;;;;;;;6.13;81.17;101746.53;1714799;82;27418;-64
2020/12/18 11:18:30;;;;;;;47.80;21.33;;;;;;;6.17;81.23;101747.83;1726600;80;26282;-66
2020/12/18 11:20:57;;;;;;;43.38;20.95;;;;;;;6.23;81.23;101754.00;1720771;81;25951;-65
2020/12/18 11:23:27;;;;;;;46.37;21.20;;;;;;;6.25;81.01;101752.20;1699445;80;26414;-64
2020/12/18 11:25:54;;;;;;;48.17;22.42;;;;;;;6.22;81.02;101755.78;1729213;81;25968;-64
2020/12/18 11:28:24;;;;;;;47.58;22.40;;;;;;;6.25;81.01;101753.54;1719294;80;26129;-62
2020/12/18 11:30:52;;;;;;;60.20;21.52;;;;;;;6.19;80.83;101748.70;1716900;82;25920;-62
2020/12/18 11:33:23;;;;;;;46.13;20.72;;;;;;;6.18;80.88;101750.05;1710515;80;26528;-62
2020/12/18 11:35:52;;;;;;;44.88;19.80;;;;;;;6.21;80.93;101744.70;1707789;82;26390;-62
2020/12/18 11:38:20;;;;;;;45.85;22.58;;;;;;;6.25;80.91;101748.22;1700888;80;25877;-62